sensor_id;sensor_type;location;lat;lon;timestamp;P1;durP1;ratioP1;P2;durP2;ratioP2
21258;SDS011;10787;53.364;-1.480;2022-12-07T00:01:22;8.83;;;2.47;;
21258;SDS011;10787;53.364;-1.480;2022-12-07T00:03:51;7.60;;;2.63;;
21258;SDS011;10787;53.364;-1.480;2022-12-07T00:06:19;9.57;;;2.90;;
21258;SDS011;10787;53.364;-1.480;2022-12-07T00:08:57;7.53;;;2.30;;
21258;SDS011;10787;53.364;-1.480;2022-12-07T00:11:24;7.00;;;2.63;;
21258;SDS011;10787;53.364;-1.480;2022-12-07T00:13:53;6.57;;;2.27;;
21258;SDS011;10787;53.364;-1.480;2022-12-07T00:16:23;5.03;;;2.13;;
21258;SDS011;10787;53.364;-1.480;2022-12-07T00:18:50;8.10;;;2.30;;
21258;SDS011;10787;53.364;-1.480;2022-12-07T00:21:20;7.63;;;2.30;;
21258;SDS011;10787;53.364;-1.480;2022-12-07T00:23:49;9.03;;;2.10;;
21258;SDS011;10787;53.364;-1.480;2022-12-07T00:26:17;7.60;;;1.93;;
21258;SDS011;10787;53.364;-1.480;2022-12-07T00:28:48;5.73;;;1.80;;
21258;SDS011;10787;53.364;-1.480;2022-12-07T00:31:16;8.30;;;1.90;;
21258;SDS011;10787;53.364;-1.480;2022-12-07T00:33:42;7.63;;;1.80;;
21258;SDS011;10787;53.364;-1.480;2022-12-07T00:36:09;5.00;;;1.90;;
21258;SDS011;10787;53.364;-1.480;2022-12-07T00:38:40;5.90;;;2.10;;
21258;SDS011;10787;53.364;-1.480;2022-12-07T00:41:09;6.23;;;1.90;;
21258;SDS011;10787;53.364;-1.480;2022-12-07T00:43:37;6.80;;;2.00;;
21258;SDS011;10787;53.364;-1.480;2022-12-07T00:46:04;9.37;;;1.87;;
21258;SDS011;10787;53.364;-1.480;2022-12-07T00:48:30;5.73;;;1.80;;
21258;SDS011;10787;53.364;-1.480;2022-12-07T00:50:56;7.43;;;1.80;;
21258;SDS011;10787;53.364;-1.480;2022-12-07T00:53:22;8.53;;;2.00;;
21258;SDS011;10787;53.364;-1.480;2022-12-07T00:55:48;10.00;;;2.03;;
21258;SDS011;10787;53.364;-1.480;2022-12-07T00:58:14;9.57;;;2.00;;
21258;SDS011;10787;53.364;-1.480;2022-12-07T01:00:41;8.70;;;2.00;;
21258;SDS011;10787;53.364;-1.480;2022-12-07T01:03:08;8.97;;;1.90;;
21258;SDS011;10787;53.364;-1.480;2022-12-07T01:05:37;6.03;;;1.90;;
21258;SDS011;10787;53.364;-1.480;2022-12-07T01:08:03;7.40;;;2.00;;
21258;SDS011;10787;53.364;-1.480;2022-12-07T01:10:30;7.27;;;1.60;;
21258;SDS011;10787;53.364;-1.480;2022-12-07T01:12:58;6.10;;;1.87;;
21258;SDS011;10787;53.364;-1.480;2022-12-07T01:15:25;7.77;;;2.03;;
21258;SDS011;10787;53.364;-1.480;2022-12-07T01:17:51;6.67;;;1.60;;
21258;SDS011;10787;53.364;-1.480;2022-12-07T01:20:17;6.80;;;1.70;;
21258;SDS011;10787;53.364;-1.480;2022-12-07T01:22:43;4.63;;;1.50;;
21258;SDS011;10787;53.364;-1.480;2022-12-07T01:25:09;9.87;;;1.77;;
21258;SDS011;10787;53.364;-1.480;2022-12-07T01:27:36;5.97;;;1.80;;
21258;SDS011;10787;53.364;-1.480;2022-12-07T01:30:03;7.40;;;1.50;;
21258;SDS011;10787;53.364;-1.480;2022-12-07T01:32:31;7.00;;;2.27;;
21258;SDS011;10787;53.364;-1.480;2022-12-07T01:34:57;8.00;;;1.73;;
21258;SDS011;10787;53.364;-1.480;2022-12-07T01:37:23;5.73;;;1.67;;
21258;SDS011;10787;53.364;-1.480;2022-12-07T01:39:49;3.43;;;1.30;;
21258;SDS011;10787;53.364;-1.480;2022-12-07T01:42:17;6.53;;;1.67;;
21258;SDS011;10787;53.364;-1.480;2022-12-07T01:47:55;5.57;;;1.27;;
21258;SDS011;10787;53.364;-1.480;2022-12-07T01:50:23;6.57;;;1.53;;
21258;SDS011;10787;53.364;-1.480;2022-12-07T01:52:52;6.80;;;1.40;;
21258;SDS011;10787;53.364;-1.480;2022-12-07T01:55:21;6.40;;;1.40;;
21258;SDS011;10787;53.364;-1.480;2022-12-07T01:57:52;6.40;;;1.43;;
21258;SDS011;10787;53.364;-1.480;2022-12-07T02:00:19;5.23;;;1.20;;
21258;SDS011;10787;53.364;-1.480;2022-12-07T02:02:51;8.33;;;1.37;;
21258;SDS011;10787;53.364;-1.480;2022-12-07T02:05:21;6.10;;;1.40;;
21258;SDS011;10787;53.364;-1.480;2022-12-07T02:07:53;10.07;;;1.27;;
21258;SDS011;10787;53.364;-1.480;2022-12-07T02:10:22;5.53;;;1.07;;
21258;SDS011;10787;53.364;-1.480;2022-12-07T02:12:56;3.47;;;1.03;;
21258;SDS011;10787;53.364;-1.480;2022-12-07T02:18:53;5.73;;;1.20;;
21258;SDS011;10787;53.364;-1.480;2022-12-07T02:32:16;3.90;;;1.00;;
21258;SDS011;10787;53.364;-1.480;2022-12-07T02:34:58;3.80;;;1.00;;
21258;SDS011;10787;53.364;-1.480;2022-12-07T02:38:14;5.37;;;1.00;;
21258;SDS011;10787;53.364;-1.480;2022-12-07T02:42:48;5.27;;;1.23;;
21258;SDS011;10787;53.364;-1.480;2022-12-07T02:45:20;4.00;;;1.30;;
21258;SDS011;10787;53.364;-1.480;2022-12-07T02:47:48;6.00;;;1.53;;
21258;SDS011;10787;53.364;-1.480;2022-12-07T02:50:19;6.33;;;1.50;;
21258;SDS011;10787;53.364;-1.480;2022-12-07T02:52:45;3.00;;;1.03;;
21258;SDS011;10787;53.364;-1.480;2022-12-07T02:55:11;5.03;;;1.20;;
21258;SDS011;10787;53.364;-1.480;2022-12-07T02:57:53;6.33;;;1.27;;
21258;SDS011;10787;53.364;-1.480;2022-12-07T03:00:34;3.07;;;1.00;;
21258;SDS011;10787;53.364;-1.480;2022-12-07T03:03:09;4.73;;;1.20;;
21258;SDS011;10787;53.364;-1.480;2022-12-07T03:11:07;6.53;;;1.10;;
21258;SDS011;10787;53.364;-1.480;2022-12-07T03:16:24;5.83;;;1.10;;
21258;SDS011;10787;53.364;-1.480;2022-12-07T03:19:18;6.23;;;1.27;;
21258;SDS011;10787;53.364;-1.480;2022-12-07T03:22:02;3.50;;;1.00;;
21258;SDS011;10787;53.364;-1.480;2022-12-07T03:24:34;4.10;;;1.23;;
21258;SDS011;10787;53.364;-1.480;2022-12-07T03:27:15;4.90;;;1.10;;
21258;SDS011;10787;53.364;-1.480;2022-12-07T03:29:45;3.57;;;0.90;;
21258;SDS011;10787;53.364;-1.480;2022-12-07T03:32:24;3.40;;;1.00;;
21258;SDS011;10787;53.364;-1.480;2022-12-07T03:40:13;5.03;;;2.13;;
21258;SDS011;10787;53.364;-1.480;2022-12-07T03:42:48;4.47;;;1.30;;
21258;SDS011;10787;53.364;-1.480;2022-12-07T03:45:15;6.60;;;1.03;;
21258;SDS011;10787;53.364;-1.480;2022-12-07T03:47:46;5.80;;;1.40;;
21258;SDS011;10787;53.364;-1.480;2022-12-07T03:50:23;4.80;;;1.10;;
21258;SDS011;10787;53.364;-1.480;2022-12-07T03:55:43;4.47;;;1.40;;
21258;SDS011;10787;53.364;-1.480;2022-12-07T03:58:13;5.23;;;1.83;;
21258;SDS011;10787;53.364;-1.480;2022-12-07T04:00:45;5.93;;;1.60;;
21258;SDS011;10787;53.364;-1.480;2022-12-07T04:03:12;8.33;;;2.00;;
21258;SDS011;10787;53.364;-1.480;2022-12-07T04:05:38;6.37;;;2.00;;
21258;SDS011;10787;53.364;-1.480;2022-12-07T04:08:05;6.07;;;1.90;;
21258;SDS011;10787;53.364;-1.480;2022-12-07T04:10:31;7.80;;;2.40;;
21258;SDS011;10787;53.364;-1.480;2022-12-07T04:13:01;6.43;;;1.90;;
21258;SDS011;10787;53.364;-1.480;2022-12-07T04:15:27;7.47;;;2.00;;
21258;SDS011;10787;53.364;-1.480;2022-12-07T04:17:53;6.40;;;1.93;;
21258;SDS011;10787;53.364;-1.480;2022-12-07T04:20:20;8.13;;;2.27;;
21258;SDS011;10787;53.364;-1.480;2022-12-07T04:22:46;5.27;;;1.80;;
21258;SDS011;10787;53.364;-1.480;2022-12-07T04:25:11;11.07;;;2.10;;
21258;SDS011;10787;53.364;-1.480;2022-12-07T04:27:37;4.93;;;1.83;;
21258;SDS011;10787;53.364;-1.480;2022-12-07T04:30:03;7.57;;;2.03;;
21258;SDS011;10787;53.364;-1.480;2022-12-07T04:32:30;5.27;;;1.40;;
21258;SDS011;10787;53.364;-1.480;2022-12-07T04:34:56;7.47;;;1.63;;
21258;SDS011;10787;53.364;-1.480;2022-12-07T04:37:23;5.57;;;1.80;;
21258;SDS011;10787;53.364;-1.480;2022-12-07T04:39:49;8.27;;;1.97;;
21258;SDS011;10787;53.364;-1.480;2022-12-07T04:42:15;4.53;;;1.93;;
21258;SDS011;10787;53.364;-1.480;2022-12-07T04:44:41;4.17;;;1.80;;
21258;SDS011;10787;53.364;-1.480;2022-12-07T04:47:07;7.03;;;2.07;;
21258;SDS011;10787;53.364;-1.480;2022-12-07T04:49:33;5.67;;;2.07;;
21258;SDS011;10787;53.364;-1.480;2022-12-07T04:51:58;4.00;;;2.00;;
21258;SDS011;10787;53.364;-1.480;2022-12-07T04:54:24;6.67;;;2.00;;
21258;SDS011;10787;53.364;-1.480;2022-12-07T04:56:51;7.43;;;2.20;;
21258;SDS011;10787;53.364;-1.480;2022-12-07T04:59:16;4.83;;;1.97;;
21258;SDS011;10787;53.364;-1.480;2022-12-07T05:01:42;4.70;;;1.50;;
21258;SDS011;10787;53.364;-1.480;2022-12-07T05:04:09;6.37;;;1.83;;
21258;SDS011;10787;53.364;-1.480;2022-12-07T05:06:35;7.03;;;2.17;;
21258;SDS011;10787;53.364;-1.480;2022-12-07T05:09:01;8.37;;;1.67;;
21258;SDS011;10787;53.364;-1.480;2022-12-07T05:11:28;4.87;;;1.87;;
21258;SDS011;10787;53.364;-1.480;2022-12-07T05:14:03;6.23;;;1.60;;
21258;SDS011;10787;53.364;-1.480;2022-12-07T05:16:38;3.60;;;1.63;;
21258;SDS011;10787;53.364;-1.480;2022-12-07T05:19:06;5.97;;;1.67;;
21258;SDS011;10787;53.364;-1.480;2022-12-07T05:21:32;6.90;;;2.00;;
21258;SDS011;10787;53.364;-1.480;2022-12-07T05:23:58;6.73;;;1.70;;
21258;SDS011;10787;53.364;-1.480;2022-12-07T05:26:24;4.13;;;1.33;;
21258;SDS011;10787;53.364;-1.480;2022-12-07T05:28:53;6.70;;;1.93;;
21258;SDS011;10787;53.364;-1.480;2022-12-07T05:31:20;4.90;;;1.80;;
21258;SDS011;10787;53.364;-1.480;2022-12-07T05:33:46;8.13;;;1.53;;
21258;SDS011;10787;53.364;-1.480;2022-12-07T05:36:13;5.57;;;1.47;;
21258;SDS011;10787;53.364;-1.480;2022-12-07T05:38:39;4.87;;;1.30;;
21258;SDS011;10787;53.364;-1.480;2022-12-07T05:41:06;5.37;;;1.50;;
21258;SDS011;10787;53.364;-1.480;2022-12-07T05:43:53;9.53;;;2.43;;
21258;SDS011;10787;53.364;-1.480;2022-12-07T05:46:18;7.27;;;3.20;;
21258;SDS011;10787;53.364;-1.480;2022-12-07T05:48:44;6.43;;;2.20;;
21258;SDS011;10787;53.364;-1.480;2022-12-07T05:51:10;5.17;;;1.60;;
21258;SDS011;10787;53.364;-1.480;2022-12-07T05:53:36;4.30;;;1.70;;
21258;SDS011;10787;53.364;-1.480;2022-12-07T05:56:01;3.83;;;1.40;;
21258;SDS011;10787;53.364;-1.480;2022-12-07T05:58:27;4.93;;;1.30;;
21258;SDS011;10787;53.364;-1.480;2022-12-07T06:01:11;4.77;;;1.30;;
21258;SDS011;10787;53.364;-1.480;2022-12-07T06:03:37;6.90;;;1.30;;
21258;SDS011;10787;53.364;-1.480;2022-12-07T06:06:03;4.67;;;1.10;;
21258;SDS011;10787;53.364;-1.480;2022-12-07T06:08:29;5.63;;;1.20;;
21258;SDS011;10787;53.364;-1.480;2022-12-07T06:10:54;3.00;;;1.20;;
21258;SDS011;10787;53.364;-1.480;2022-12-07T06:13:40;3.60;;;1.50;;
21258;SDS011;10787;53.364;-1.480;2022-12-07T06:16:06;6.37;;;1.63;;
21258;SDS011;10787;53.364;-1.480;2022-12-07T06:18:32;4.80;;;1.60;;
21258;SDS011;10787;53.364;-1.480;2022-12-07T06:20:58;6.70;;;1.97;;
21258;SDS011;10787;53.364;-1.480;2022-12-07T06:23:24;6.60;;;2.70;;
21258;SDS011;10787;53.364;-1.480;2022-12-07T06:25:50;6.13;;;2.03;;
21258;SDS011;10787;53.364;-1.480;2022-12-07T06:28:15;5.23;;;2.20;;
21258;SDS011;10787;53.364;-1.480;2022-12-07T06:30:41;7.33;;;2.43;;
21258;SDS011;10787;53.364;-1.480;2022-12-07T06:33:07;5.47;;;2.20;;
21258;SDS011;10787;53.364;-1.480;2022-12-07T06:35:33;4.73;;;2.10;;
21258;SDS011;10787;53.364;-1.480;2022-12-07T06:37:59;4.40;;;1.50;;
21258;SDS011;10787;53.364;-1.480;2022-12-07T06:40:25;5.07;;;1.80;;
21258;SDS011;10787;53.364;-1.480;2022-12-07T06:42:51;5.60;;;1.77;;
21258;SDS011;10787;53.364;-1.480;2022-12-07T06:45:16;4.90;;;1.90;;
21258;SDS011;10787;53.364;-1.480;2022-12-07T06:47:42;6.33;;;2.30;;
21258;SDS011;10787;53.364;-1.480;2022-12-07T06:50:08;4.53;;;2.13;;
21258;SDS011;10787;53.364;-1.480;2022-12-07T06:52:34;4.33;;;1.80;;
21258;SDS011;10787;53.364;-1.480;2022-12-07T06:55:00;3.43;;;1.90;;
21258;SDS011;10787;53.364;-1.480;2022-12-07T06:57:26;3.73;;;2.00;;
21258;SDS011;10787;53.364;-1.480;2022-12-07T06:59:52;4.37;;;2.33;;
21258;SDS011;10787;53.364;-1.480;2022-12-07T07:02:18;7.93;;;3.00;;
21258;SDS011;10787;53.364;-1.480;2022-12-07T07:04:44;7.47;;;2.80;;
21258;SDS011;10787;53.364;-1.480;2022-12-07T07:07:10;7.73;;;3.60;;
21258;SDS011;10787;53.364;-1.480;2022-12-07T07:09:37;7.83;;;3.63;;
21258;SDS011;10787;53.364;-1.480;2022-12-07T07:12:03;9.93;;;4.00;;
21258;SDS011;10787;53.364;-1.480;2022-12-07T07:14:29;17.00;;;6.33;;
21258;SDS011;10787;53.364;-1.480;2022-12-07T07:16:55;21.93;;;8.93;;
21258;SDS011;10787;53.364;-1.480;2022-12-07T07:19:21;16.77;;;6.10;;
21258;SDS011;10787;53.364;-1.480;2022-12-07T07:21:47;15.40;;;6.43;;
21258;SDS011;10787;53.364;-1.480;2022-12-07T07:24:12;13.60;;;5.10;;
21258;SDS011;10787;53.364;-1.480;2022-12-07T07:26:38;12.27;;;5.10;;
21258;SDS011;10787;53.364;-1.480;2022-12-07T07:29:05;12.67;;;5.27;;
21258;SDS011;10787;53.364;-1.480;2022-12-07T07:31:31;13.10;;;4.93;;
21258;SDS011;10787;53.364;-1.480;2022-12-07T07:33:56;11.70;;;5.77;;
21258;SDS011;10787;53.364;-1.480;2022-12-07T07:36:22;12.00;;;6.10;;
21258;SDS011;10787;53.364;-1.480;2022-12-07T07:38:48;16.53;;;6.23;;
21258;SDS011;10787;53.364;-1.480;2022-12-07T07:41:14;11.27;;;5.57;;
21258;SDS011;10787;53.364;-1.480;2022-12-07T07:43:39;12.53;;;6.20;;
21258;SDS011;10787;53.364;-1.480;2022-12-07T07:46:05;18.37;;;7.70;;
21258;SDS011;10787;53.364;-1.480;2022-12-07T07:48:31;12.93;;;6.97;;
21258;SDS011;10787;53.364;-1.480;2022-12-07T07:50:57;13.90;;;6.40;;
21258;SDS011;10787;53.364;-1.480;2022-12-07T07:53:23;15.57;;;7.73;;
21258;SDS011;10787;53.364;-1.480;2022-12-07T07:55:50;13.93;;;7.23;;
21258;SDS011;10787;53.364;-1.480;2022-12-07T07:58:17;15.80;;;8.30;;
21258;SDS011;10787;53.364;-1.480;2022-12-07T08:00:43;18.10;;;8.60;;
21258;SDS011;10787;53.364;-1.480;2022-12-07T08:03:09;17.73;;;8.40;;
21258;SDS011;10787;53.364;-1.480;2022-12-07T08:05:36;16.60;;;8.70;;
21258;SDS011;10787;53.364;-1.480;2022-12-07T08:08:04;14.00;;;7.80;;
21258;SDS011;10787;53.364;-1.480;2022-12-07T08:10:30;16.90;;;7.63;;
21258;SDS011;10787;53.364;-1.480;2022-12-07T08:12:57;18.20;;;9.40;;
21258;SDS011;10787;53.364;-1.480;2022-12-07T08:15:36;12.50;;;5.83;;
21258;SDS011;10787;53.364;-1.480;2022-12-07T08:18:03;11.77;;;5.40;;
21258;SDS011;10787;53.364;-1.480;2022-12-07T08:20:30;18.80;;;9.63;;
21258;SDS011;10787;53.364;-1.480;2022-12-07T08:22:57;13.83;;;6.60;;
21258;SDS011;10787;53.364;-1.480;2022-12-07T08:25:23;15.00;;;6.27;;
21258;SDS011;10787;53.364;-1.480;2022-12-07T08:27:50;15.73;;;9.00;;
21258;SDS011;10787;53.364;-1.480;2022-12-07T08:30:17;10.73;;;2.87;;
21258;SDS011;10787;53.364;-1.480;2022-12-07T08:32:46;12.20;;;6.13;;
21258;SDS011;10787;53.364;-1.480;2022-12-07T08:35:13;7.80;;;4.90;;
21258;SDS011;10787;53.364;-1.480;2022-12-07T08:37:40;10.30;;;4.70;;
21258;SDS011;10787;53.364;-1.480;2022-12-07T08:40:07;10.10;;;3.80;;
21258;SDS011;10787;53.364;-1.480;2022-12-07T08:42:34;5.53;;;2.40;;
21258;SDS011;10787;53.364;-1.480;2022-12-07T08:45:12;6.73;;;3.13;;
21258;SDS011;10787;53.364;-1.480;2022-12-07T08:48:23;6.53;;;2.80;;
21258;SDS011;10787;53.364;-1.480;2022-12-07T08:50:35;6.43;;;2.30;;
21258;SDS011;10787;53.364;-1.480;2022-12-07T08:53:02;4.57;;;2.60;;
21258;SDS011;10787;53.364;-1.480;2022-12-07T08:55:30;3.90;;;1.50;;
21258;SDS011;10787;53.364;-1.480;2022-12-07T08:57:59;6.33;;;3.13;;
21258;SDS011;10787;53.364;-1.480;2022-12-07T09:00:27;8.40;;;3.67;;
21258;SDS011;10787;53.364;-1.480;2022-12-07T09:02:54;6.73;;;2.67;;
21258;SDS011;10787;53.364;-1.480;2022-12-07T09:05:20;10.03;;;2.70;;
21258;SDS011;10787;53.364;-1.480;2022-12-07T09:07:48;12.30;;;4.00;;
21258;SDS011;10787;53.364;-1.480;2022-12-07T09:10:17;5.97;;;2.90;;
21258;SDS011;10787;53.364;-1.480;2022-12-07T09:12:43;5.37;;;2.50;;
21258;SDS011;10787;53.364;-1.480;2022-12-07T09:15:11;8.63;;;2.20;;
21258;SDS011;10787;53.364;-1.480;2022-12-07T09:17:36;6.37;;;1.73;;
21258;SDS011;10787;53.364;-1.480;2022-12-07T09:20:04;7.27;;;3.67;;
21258;SDS011;10787;53.364;-1.480;2022-12-07T09:22:31;6.03;;;3.00;;
21258;SDS011;10787;53.364;-1.480;2022-12-07T09:24:57;3.73;;;1.60;;
21258;SDS011;10787;53.364;-1.480;2022-12-07T09:27:24;3.93;;;1.70;;
21258;SDS011;10787;53.364;-1.480;2022-12-07T09:29:50;7.27;;;2.00;;
21258;SDS011;10787;53.364;-1.480;2022-12-07T09:32:27;6.70;;;2.10;;
21258;SDS011;10787;53.364;-1.480;2022-12-07T09:34:53;4.67;;;1.80;;
21258;SDS011;10787;53.364;-1.480;2022-12-07T09:37:19;7.50;;;2.33;;
21258;SDS011;10787;53.364;-1.480;2022-12-07T09:39:45;7.17;;;3.00;;
21258;SDS011;10787;53.364;-1.480;2022-12-07T09:42:16;7.60;;;3.43;;
21258;SDS011;10787;53.364;-1.480;2022-12-07T09:44:54;9.80;;;2.60;;
21258;SDS011;10787;53.364;-1.480;2022-12-07T09:47:20;9.10;;;3.10;;
21258;SDS011;10787;53.364;-1.480;2022-12-07T09:49:49;6.67;;;3.10;;
21258;SDS011;10787;53.364;-1.480;2022-12-07T09:52:25;6.03;;;2.13;;
21258;SDS011;10787;53.364;-1.480;2022-12-07T09:54:54;7.90;;;1.97;;
21258;SDS011;10787;53.364;-1.480;2022-12-07T09:57:23;8.40;;;2.30;;
21258;SDS011;10787;53.364;-1.480;2022-12-07T09:59:56;5.37;;;1.63;;
21258;SDS011;10787;53.364;-1.480;2022-12-07T10:05:13;4.30;;;1.60;;
21258;SDS011;10787;53.364;-1.480;2022-12-07T10:07:44;3.90;;;1.40;;
21258;SDS011;10787;53.364;-1.480;2022-12-07T10:10:15;7.20;;;2.00;;
21258;SDS011;10787;53.364;-1.480;2022-12-07T10:12:54;5.03;;;1.87;;
21258;SDS011;10787;53.364;-1.480;2022-12-07T10:15:23;6.07;;;2.07;;
21258;SDS011;10787;53.364;-1.480;2022-12-07T10:18:06;5.40;;;1.53;;
21258;SDS011;10787;53.364;-1.480;2022-12-07T10:21:26;5.20;;;1.67;;
21258;SDS011;10787;53.364;-1.480;2022-12-07T10:29:14;2.97;;;1.10;;
21258;SDS011;10787;53.364;-1.480;2022-12-07T10:31:52;8.70;;;1.30;;
21258;SDS011;10787;53.364;-1.480;2022-12-07T10:34:51;6.83;;;1.40;;
21258;SDS011;10787;53.364;-1.480;2022-12-07T10:37:40;7.27;;;2.00;;
21258;SDS011;10787;53.364;-1.480;2022-12-07T10:40:23;6.87;;;1.77;;
21258;SDS011;10787;53.364;-1.480;2022-12-07T10:43:00;6.53;;;2.03;;
21258;SDS011;10787;53.364;-1.480;2022-12-07T10:45:31;8.53;;;2.80;;
21258;SDS011;10787;53.364;-1.480;2022-12-07T10:50:47;4.63;;;1.40;;
21258;SDS011;10787;53.364;-1.480;2022-12-07T11:01:27;5.20;;;1.47;;
21258;SDS011;10787;53.364;-1.480;2022-12-07T11:09:39;5.63;;;1.40;;
21258;SDS011;10787;53.364;-1.480;2022-12-07T11:12:32;3.23;;;1.20;;
21258;SDS011;10787;53.364;-1.480;2022-12-07T11:17:35;4.97;;;1.20;;
21258;SDS011;10787;53.364;-1.480;2022-12-07T11:20:19;4.80;;;1.30;;
21258;SDS011;10787;53.364;-1.480;2022-12-07T11:23:10;3.83;;;1.20;;
21258;SDS011;10787;53.364;-1.480;2022-12-07T11:25:54;7.93;;;1.23;;
21258;SDS011;10787;53.364;-1.480;2022-12-07T11:34:27;4.97;;;1.40;;
21258;SDS011;10787;53.364;-1.480;2022-12-07T11:36:58;5.57;;;1.20;;
21258;SDS011;10787;53.364;-1.480;2022-12-07T11:39:36;3.50;;;1.40;;
21258;SDS011;10787;53.364;-1.480;2022-12-07T11:42:16;3.77;;;1.40;;
21258;SDS011;10787;53.364;-1.480;2022-12-07T11:44:52;3.20;;;1.37;;
21258;SDS011;10787;53.364;-1.480;2022-12-07T11:47:30;5.90;;;2.28;;
21258;SDS011;10787;53.364;-1.480;2022-12-07T11:52:58;4.80;;;2.13;;
21258;SDS011;10787;53.364;-1.480;2022-12-07T12:03:43;4.38;;;1.50;;
21258;SDS011;10787;53.364;-1.480;2022-12-07T12:06:16;3.42;;;1.48;;
21258;SDS011;10787;53.364;-1.480;2022-12-07T12:08:44;3.33;;;1.48;;
21258;SDS011;10787;53.364;-1.480;2022-12-07T12:22:30;3.75;;;1.77;;
21258;SDS011;10787;53.364;-1.480;2022-12-07T12:25:05;3.25;;;1.40;;
21258;SDS011;10787;53.364;-1.480;2022-12-07T12:27:37;9.52;;;2.25;;
21258;SDS011;10787;53.364;-1.480;2022-12-07T12:30:06;3.40;;;1.00;;
21258;SDS011;10787;53.364;-1.480;2022-12-07T12:32:49;5.35;;;2.08;;
21258;SDS011;10787;53.364;-1.480;2022-12-07T12:40:50;2.47;;;1.30;;
21258;SDS011;10787;53.364;-1.480;2022-12-07T12:47:37;3.72;;;1.17;;
21258;SDS011;10787;53.364;-1.480;2022-12-07T12:52:00;4.88;;;1.60;;
21258;SDS011;10787;53.364;-1.480;2022-12-07T12:57:34;3.17;;;1.20;;
21258;SDS011;10787;53.364;-1.480;2022-12-07T13:00:12;3.97;;;1.25;;
21258;SDS011;10787;53.364;-1.480;2022-12-07T13:02:50;5.88;;;1.00;;
21258;SDS011;10787;53.364;-1.480;2022-12-07T13:05:18;4.55;;;1.20;;
21258;SDS011;10787;53.364;-1.480;2022-12-07T13:12:56;5.95;;;1.42;;
21258;SDS011;10787;53.364;-1.480;2022-12-07T13:28:41;3.53;;;1.48;;
21258;SDS011;10787;53.364;-1.480;2022-12-07T13:33:58;4.15;;;1.17;;
21258;SDS011;10787;53.364;-1.480;2022-12-07T13:36:25;2.95;;;1.38;;
21258;SDS011;10787;53.364;-1.480;2022-12-07T13:38:55;3.47;;;1.27;;
21258;SDS011;10787;53.364;-1.480;2022-12-07T13:41:26;3.47;;;1.30;;
21258;SDS011;10787;53.364;-1.480;2022-12-07T13:43:59;10.05;;;5.28;;
21258;SDS011;10787;53.364;-1.480;2022-12-07T13:46:27;3.85;;;1.33;;
21258;SDS011;10787;53.364;-1.480;2022-12-07T13:51:47;4.38;;;1.38;;
21258;SDS011;10787;53.364;-1.480;2022-12-07T13:54:14;2.83;;;1.40;;
21258;SDS011;10787;53.364;-1.480;2022-12-07T13:56:40;5.10;;;2.50;;
21258;SDS011;10787;53.364;-1.480;2022-12-07T13:59:12;4.75;;;1.70;;
21258;SDS011;10787;53.364;-1.480;2022-12-07T14:01:44;3.58;;;1.40;;
21258;SDS011;10787;53.364;-1.480;2022-12-07T14:04:32;2.92;;;1.35;;
21258;SDS011;10787;53.364;-1.480;2022-12-07T14:07:01;5.18;;;1.80;;
21258;SDS011;10787;53.364;-1.480;2022-12-07T14:09:52;4.85;;;1.50;;
21258;SDS011;10787;53.364;-1.480;2022-12-07T14:12:24;3.63;;;1.48;;
21258;SDS011;10787;53.364;-1.480;2022-12-07T14:14:51;6.05;;;1.90;;
21258;SDS011;10787;53.364;-1.480;2022-12-07T14:17:21;4.80;;;1.70;;
21258;SDS011;10787;53.364;-1.480;2022-12-07T14:27:38;4.07;;;2.10;;
21258;SDS011;10787;53.364;-1.480;2022-12-07T14:30:05;3.75;;;2.35;;
21258;SDS011;10787;53.364;-1.480;2022-12-07T14:32:31;3.22;;;2.25;;
21258;SDS011;10787;53.364;-1.480;2022-12-07T14:37:27;6.35;;;2.90;;
21258;SDS011;10787;53.364;-1.480;2022-12-07T14:39:54;8.63;;;3.75;;
21258;SDS011;10787;53.364;-1.480;2022-12-07T14:42:20;5.38;;;4.00;;
21258;SDS011;10787;53.364;-1.480;2022-12-07T14:45:10;8.38;;;4.80;;
21258;SDS011;10787;53.364;-1.480;2022-12-07T14:47:43;8.70;;;4.30;;
21258;SDS011;10787;53.364;-1.480;2022-12-07T14:50:14;9.23;;;4.70;;
21258;SDS011;10787;53.364;-1.480;2022-12-07T14:52:42;8.65;;;4.35;;
21258;SDS011;10787;53.364;-1.480;2022-12-07T14:55:16;6.60;;;4.45;;
21258;SDS011;10787;53.364;-1.480;2022-12-07T14:57:49;10.75;;;5.00;;
21258;SDS011;10787;53.364;-1.480;2022-12-07T15:00:16;10.48;;;6.93;;
21258;SDS011;10787;53.364;-1.480;2022-12-07T15:02:46;10.48;;;6.25;;
21258;SDS011;10787;53.364;-1.480;2022-12-07T15:05:13;9.18;;;5.60;;
21258;SDS011;10787;53.364;-1.480;2022-12-07T15:07:39;10.10;;;5.82;;
21258;SDS011;10787;53.364;-1.480;2022-12-07T15:10:05;9.13;;;5.87;;
21258;SDS011;10787;53.364;-1.480;2022-12-07T15:12:38;10.17;;;6.17;;
21258;SDS011;10787;53.364;-1.480;2022-12-07T15:15:03;11.73;;;6.53;;
21258;SDS011;10787;53.364;-1.480;2022-12-07T15:17:30;10.63;;;6.50;;
21258;SDS011;10787;53.364;-1.480;2022-12-07T15:19:57;9.10;;;6.00;;
21258;SDS011;10787;53.364;-1.480;2022-12-07T15:22:23;12.73;;;6.60;;
21258;SDS011;10787;53.364;-1.480;2022-12-07T15:24:49;12.47;;;6.30;;
21258;SDS011;10787;53.364;-1.480;2022-12-07T15:27:15;13.40;;;6.73;;
21258;SDS011;10787;53.364;-1.480;2022-12-07T15:29:41;13.37;;;6.53;;
21258;SDS011;10787;53.364;-1.480;2022-12-07T15:32:07;10.77;;;6.27;;
21258;SDS011;10787;53.364;-1.480;2022-12-07T15:34:33;10.57;;;5.60;;
21258;SDS011;10787;53.364;-1.480;2022-12-07T15:36:59;12.67;;;5.83;;
21258;SDS011;10787;53.364;-1.480;2022-12-07T15:39:25;11.87;;;5.83;;
21258;SDS011;10787;53.364;-1.480;2022-12-07T15:41:50;11.57;;;5.60;;
21258;SDS011;10787;53.364;-1.480;2022-12-07T15:44:16;8.13;;;5.20;;
21258;SDS011;10787;53.364;-1.480;2022-12-07T15:47:10;12.60;;;5.33;;
21258;SDS011;10787;53.364;-1.480;2022-12-07T15:49:36;11.17;;;5.77;;
21258;SDS011;10787;53.364;-1.480;2022-12-07T15:52:02;10.07;;;5.80;;
21258;SDS011;10787;53.364;-1.480;2022-12-07T15:54:28;12.40;;;6.30;;
21258;SDS011;10787;53.364;-1.480;2022-12-07T15:56:55;12.70;;;5.97;;
21258;SDS011;10787;53.364;-1.480;2022-12-07T15:59:22;10.30;;;5.20;;
21258;SDS011;10787;53.364;-1.480;2022-12-07T16:01:48;9.57;;;5.47;;
21258;SDS011;10787;53.364;-1.480;2022-12-07T16:04:14;11.37;;;5.30;;
21258;SDS011;10787;53.364;-1.480;2022-12-07T16:06:39;9.07;;;4.97;;
21258;SDS011;10787;53.364;-1.480;2022-12-07T16:09:05;10.67;;;5.10;;
21258;SDS011;10787;53.364;-1.480;2022-12-07T16:11:34;11.13;;;5.13;;
21258;SDS011;10787;53.364;-1.480;2022-12-07T16:14:01;15.23;;;6.03;;
21258;SDS011;10787;53.364;-1.480;2022-12-07T16:16:27;12.03;;;5.90;;
21258;SDS011;10787;53.364;-1.480;2022-12-07T16:18:54;11.60;;;6.10;;
21258;SDS011;10787;53.364;-1.480;2022-12-07T16:21:20;14.07;;;6.00;;
21258;SDS011;10787;53.364;-1.480;2022-12-07T16:23:46;11.13;;;5.80;;
21258;SDS011;10787;53.364;-1.480;2022-12-07T16:26:13;9.80;;;5.10;;
21258;SDS011;10787;53.364;-1.480;2022-12-07T16:28:41;10.77;;;5.70;;
21258;SDS011;10787;53.364;-1.480;2022-12-07T16:31:09;10.07;;;5.70;;
21258;SDS011;10787;53.364;-1.480;2022-12-07T16:33:40;13.90;;;5.77;;
21258;SDS011;10787;53.364;-1.480;2022-12-07T16:36:08;8.30;;;5.30;;
21258;SDS011;10787;53.364;-1.480;2022-12-07T16:38:35;11.33;;;5.57;;
21258;SDS011;10787;53.364;-1.480;2022-12-07T16:41:02;10.23;;;5.03;;
21258;SDS011;10787;53.364;-1.480;2022-12-07T16:43:28;9.73;;;4.53;;
21258;SDS011;10787;53.364;-1.480;2022-12-07T16:45:54;8.67;;;4.43;;
21258;SDS011;10787;53.364;-1.480;2022-12-07T16:48:20;7.83;;;4.30;;
21258;SDS011;10787;53.364;-1.480;2022-12-07T16:50:46;8.20;;;4.10;;
21258;SDS011;10787;53.364;-1.480;2022-12-07T16:53:12;6.90;;;3.73;;
21258;SDS011;10787;53.364;-1.480;2022-12-07T16:55:40;7.67;;;3.50;;
21258;SDS011;10787;53.364;-1.480;2022-12-07T16:58:09;8.53;;;3.30;;
21258;SDS011;10787;53.364;-1.480;2022-12-07T17:00:36;6.10;;;3.30;;
21258;SDS011;10787;53.364;-1.480;2022-12-07T17:03:02;8.33;;;3.20;;
21258;SDS011;10787;53.364;-1.480;2022-12-07T17:05:30;5.90;;;3.00;;